CYHM

John C. Munro Hamilton International Airport

Hamilton, Ontario, Canada
METAR CYHM 210400Z 24010KT 15SM SCT180 M00/M02 A3000 RMK AC4 SLP170
Observed Flight Rules
Jan-21 @ 04:00 UTC (46 minutes ago) Visual Flight Rules
Wind Visibility Clouds
240° at 10 knots 15 miles
  • Scattered at 18,000' AGL
Temperatures Readings
Current 0°C / 32°F
Dewpoint -2°C / 28°F
Humidity 87%
Altimeter 30" Hg
Pressure 1017 hPa
Elevation 238
METAR CYHM 210400Z 24010KT 15SM SCT180 M00/M02 A3000 RMK AC4 SLP170
Observed Flight Rules
Jan-21 @ 04:00 UTC
(46 minutes ago)
VFR
Wind Visibility
240° at 10 knots 15 miles
Clouds
  • Scattered at 18,000' AGL
Temperature Dewpoint
0°C / 32°F -2°C / 28°F
Humidity Altimeter Pressure
87% 30" Hg 1017 hPa